Time;durP1;ratioP1;P1;durP2;ratioP2;P2;SDS_P1;SDS_P2;PMS_P1;PMS_P2;Temp;Humidity;BMP_temperature;BMP_pressure;BME280_temperature;BME280_humidity;BME280_pressure;Samples;Min_cycle;Max_cycle;Signal;HPM_P1;HPM_P2
2023/03/07 00:01:43;;;;;;;7.05;2.65;;;3.20;99.90;;;;;;4984946;28;20412;-81
2023/03/07 00:04:09;;;;;;;5.18;1.98;;;4.80;99.90;;;;;;4969301;28;20104;-80
2023/03/07 00:06:35;;;;;;;7.15;3.70;;;4.40;99.90;;;;;;4964210;28;20058;-81
2023/03/07 00:09:02;;;;;;;7.60;3.60;;;3.30;99.90;;;;;;4981292;28;20050;-81
2023/03/07 00:11:28;;;;;;;7.72;3.97;;;5.00;99.90;;;;;;4983342;28;20065;-81
2023/03/07 00:13:57;;;;;;;6.80;4.50;;;3.20;99.90;;;;;;4965183;28;20054;-81
2023/03/07 00:16:24;;;;;;;9.38;4.78;;;4.90;99.90;;;;;;4965373;28;20046;-81
2023/03/07 00:18:50;;;;;;;8.68;4.80;;;3.20;99.90;;;;;;4964685;28;20079;-81
2023/03/07 00:21:18;;;;;;;7.60;4.03;;;3.20;99.90;;;;;;4976309;28;20065;-81
2023/03/07 00:23:44;;;;;;;9.40;4.15;;;3.20;99.90;;;;;;4972798;28;20057;-81
2023/03/07 00:26:16;;;;;;;7.30;2.90;;;3.20;99.90;;;;;;4982468;28;20490;-79
2023/03/07 00:28:42;;;;;;;7.65;2.63;;;3.80;99.90;;;;;;4976093;28;20042;-81
2023/03/07 00:31:10;;;;;;;7.78;2.80;;;4.90;99.90;;;;;;4972393;28;20046;-80
2023/03/07 00:33:36;;;;;;;5.90;1.58;;;3.30;99.90;;;;;;4979256;28;20086;-80
2023/03/07 00:36:09;;;;;;;6.15;1.80;;;3.30;99.90;;;;;;4975552;28;20206;-80
2023/03/07 00:38:35;;;;;;;8.60;1.75;;;3.30;99.90;;;;;;4975129;28;20412;-81
2023/03/07 00:41:06;;;;;;;6.72;1.50;;;3.30;99.90;;;;;;4951057;28;20050;-81
2023/03/07 00:43:32;;;;;;;4.97;1.20;;;3.60;99.90;;;;;;4968553;28;20065;-78
2023/03/07 00:45:58;;;;;;;7.47;1.17;;;5.20;99.90;;;;;;4983541;28;20074;-79
2023/03/07 00:48:27;;;;;;;6.07;1.08;;;3.30;99.90;;;;;;4969342;28;20081;-79
2023/03/07 00:50:53;;;;;;;6.35;1.08;;;3.50;99.90;;;;;;4999256;28;20050;-79
2023/03/07 00:53:19;;;;;;;3.78;0.65;;;3.40;99.90;;;;;;4969426;28;20181;-79
2023/03/07 00:55:57;;;;;;;9.95;1.58;;;3.30;99.90;;;;;;4965825;28;20054;-78
2023/03/07 00:58:24;;;;;;;9.57;1.45;;;3.40;99.90;;;;;;4983676;28;20053;-79
2023/03/07 01:00:50;;;;;;;22.70;2.15;;;3.40;99.90;;;;;;4971635;28;20058;-79
2023/03/07 01:03:16;;;;;;;5.38;1.33;;;3.90;99.90;;;;;;4995749;28;20125;-79
2023/03/07 01:05:42;;;;;;;7.70;1.48;;;3.40;99.90;;;;;;4971884;28;20049;-79
2023/03/07 01:08:07;;;;;;;15.85;1.85;;;3.40;99.90;;;;;;4978446;28;20567;-79
2023/03/07 01:10:33;;;;;;;14.88;1.65;;;5.30;99.90;;;;;;4968210;28;20042;-79
2023/03/07 01:12:59;;;;;;;6.95;1.10;;;3.40;99.90;;;;;;4974431;28;20402;-79
2023/03/07 01:15:25;;;;;;;15.93;2.05;;;4.40;99.90;;;;;;4994761;28;20816;-78
2023/03/07 01:17:51;;;;;;;9.75;1.17;;;5.20;99.90;;;;;;4992460;28;20065;-79
2023/03/07 01:20:16;;;;;;;19.35;1.85;;;3.40;99.90;;;;;;4964394;28;20141;-80
2023/03/07 01:22:42;;;;;;;10.73;1.30;;;3.40;99.90;;;;;;4965136;28;20065;-80
2023/03/07 01:25:08;;;;;;;11.68;1.55;;;3.40;99.90;;;;;;4980423;28;20041;-80
2023/03/07 01:27:34;;;;;;;19.20;2.20;;;3.40;99.90;;;;;;4979223;28;20498;-80
2023/03/07 01:30:00;;;;;;;11.52;1.23;;;3.40;99.90;;;;;;4982651;28;20046;-78
2023/03/07 01:32:25;;;;;;;12.52;1.70;;;3.40;99.90;;;;;;4976112;28;20583;-79
2023/03/07 01:34:51;;;;;;;12.55;1.08;;;3.40;99.90;;;;;;4968501;28;20054;-79
2023/03/07 01:37:18;;;;;;;11.73;1.67;;;3.40;99.90;;;;;;4982501;28;20054;-79
2023/03/07 01:39:43;;;;;;;7.57;1.38;;;3.10;99.90;;;;;;4975541;28;20220;-78
2023/03/07 01:42:09;;;;;;;12.05;1.88;;;3.40;99.90;;;;;;4993549;28;20060;-78
2023/03/07 01:45:06;;;;;;;13.70;1.95;;;3.40;99.90;;;;;;4978521;28;21088;-78
2023/03/07 01:47:33;;;;;;;17.98;1.90;;;3.40;99.90;;;;;;4962415;28;20166;-78
2023/03/07 01:50:03;;;;;;;19.27;2.28;;;3.10;99.90;;;;;;4976043;28;20045;-79
2023/03/07 01:52:33;;;;;;;8.77;1.67;;;3.20;99.90;;;;;;4967905;28;20050;-78
2023/03/07 01:55:08;;;;;;;17.50;2.22;;;5.00;99.90;;;;;;4985296;28;20137;-79
2023/03/07 01:57:36;;;;;;;10.60;1.08;;;3.40;99.90;;;;;;4996693;28;20042;-79
2023/03/07 02:00:08;;;;;;;10.68;1.35;;;3.40;99.90;;;;;;4959117;28;20054;-78
2023/03/07 02:02:36;;;;;;;15.35;1.67;;;3.50;99.90;;;;;;4979132;28;20494;-79
2023/03/07 02:05:31;;;;;;;12.20;1.65;;;3.40;99.90;;;;;;4943190;28;20049;-79
2023/03/07 02:07:59;;;;;;;11.77;1.70;;;3.30;99.90;;;;;;4958436;28;20065;-79
2023/03/07 02:10:25;;;;;;;8.65;0.77;;;3.30;99.90;;;;;;4988484;28;20050;-79
2023/03/07 02:12:53;;;;;;;14.18;2.25;;;3.30;99.90;;;;;;4952167;28;20081;-79
2023/03/07 02:15:18;;;;;;;17.55;1.75;;;3.30;99.90;;;;;;4978980;28;20054;-79
2023/03/07 02:17:45;;;;;;;7.95;1.35;;;3.20;99.90;;;;;;4949546;28;20058;-79
2023/03/07 02:20:25;;;;;;;10.73;1.25;;;3.80;99.90;;;;;;4961936;28;20514;-79
2023/03/07 02:22:52;;;;;;;11.52;1.40;;;3.10;99.90;;;;;;4930211;28;20087;-79
2023/03/07 02:25:33;;;;;;;8.82;1.17;;;2.20;99.90;;;;;;4940858;28;20457;-79
2023/03/07 02:28:01;;;;;;;15.73;1.65;;;2.50;99.90;;;;;;4980822;28;20104;-79
2023/03/07 02:30:26;;;;;;;10.00;1.27;;;3.10;99.90;;;;;;4980787;28;20057;-79
2023/03/07 02:32:52;;;;;;;7.82;1.00;;;3.10;99.90;;;;;;4977897;28;20056;-78
2023/03/07 02:35:23;;;;;;;9.15;2.15;;;3.10;99.90;;;;;;4975362;28;20131;-78
2023/03/07 02:37:56;;;;;;;10.23;1.23;;;3.00;99.90;;;;;;4961359;28;20423;-78
2023/03/07 02:40:24;;;;;;;8.05;1.00;;;3.00;99.90;;;;;;4996501;28;20042;-79
2023/03/07 02:42:53;;;;;;;14.98;1.48;;;3.10;99.90;;;;;;4990227;28;20051;-79
2023/03/07 02:45:19;;;;;;;16.52;1.92;;;3.20;99.90;;;;;;4989748;28;20126;-78
2023/03/07 02:47:45;;;;;;;10.70;1.15;;;2.90;99.90;;;;;;4999856;28;20568;-78
2023/03/07 02:50:12;;;;;;;10.65;1.17;;;3.00;99.90;;;;;;4965507;28;20050;-78
2023/03/07 02:52:39;;;;;;;6.35;0.70;;;3.00;99.90;;;;;;4979435;28;20973;-79
2023/03/07 02:55:06;;;;;;;8.38;2.08;;;4.10;99.90;;;;;;4977122;28;20573;-78
2023/03/07 02:57:32;;;;;;;10.10;0.75;;;3.10;99.90;;;;;;4978216;28;20569;-78
2023/03/07 02:59:58;;;;;;;13.45;1.85;;;3.00;99.90;;;;;;4993218;28;20051;-78
2023/03/07 03:02:24;;;;;;;11.93;1.45;;;3.00;99.90;;;;;;4994609;28;20050;-78
2023/03/07 03:04:50;;;;;;;11.80;1.38;;;3.00;99.90;;;;;;4968252;28;20133;-78
2023/03/07 03:07:16;;;;;;;4.22;0.82;;;2.90;99.90;;;;;;4968901;28;20173;-78
2023/03/07 03:09:42;;;;;;;8.65;1.48;;;3.00;99.90;;;;;;4989749;28;20473;-78
2023/03/07 03:12:07;;;;;;;10.68;1.35;;;2.90;99.90;;;;;;4948600;28;20097;-77
2023/03/07 03:14:33;;;;;;;14.05;1.45;;;2.90;99.90;;;;;;4992468;28;20146;-78
2023/03/07 03:16:59;;;;;;;11.75;0.90;;;2.90;99.90;;;;;;4995661;28;20049;-78
2023/03/07 03:19:24;;;;;;;10.18;1.05;;;2.90;99.90;;;;;;4972630;28;20133;-78
2023/03/07 03:21:50;;;;;;;6.78;1.30;;;4.90;99.90;;;;;;4997879;28;20046;-78
2023/03/07 03:24:16;;;;;;;7.88;1.20;;;2.90;99.90;;;;;;4973862;28;20073;-78
2023/03/07 03:26:41;;;;;;;8.90;1.50;;;2.90;99.90;;;;;;4985736;28;20046;-77
2023/03/07 03:29:07;;;;;;;12.63;1.15;;;2.90;99.90;;;;;;4992565;28;20635;-77
2023/03/07 03:31:33;;;;;;;10.23;1.10;;;2.90;99.90;;;;;;4987741;28;20450;-77
2023/03/07 03:33:59;;;;;;;7.75;0.85;;;3.60;99.90;;;;;;4991835;28;20521;-79
2023/03/07 03:36:27;;;;;;;16.55;1.55;;;2.80;99.90;;;;;;4966237;28;20042;-79
2023/03/07 03:38:54;;;;;;;9.50;0.93;;;2.80;99.90;;;;;;4959507;28;20043;-78
2023/03/07 03:41:20;;;;;;;6.47;0.80;;;2.80;99.90;;;;;;4962732;28;20133;-78
2023/03/07 03:43:46;;;;;;;14.82;1.05;;;2.80;99.90;;;;;;4956446;28;20390;-80
2023/03/07 03:46:12;;;;;;;11.55;0.88;;;3.00;99.90;;;;;;4978554;28;20043;-79
2023/03/07 03:48:39;;;;;;;7.75;1.08;;;2.60;99.90;;;;;;4981907;28;20525;-78
2023/03/07 03:51:05;;;;;;;11.20;1.15;;;2.70;99.90;;;;;;5002070;28;20141;-78
2023/03/07 03:53:36;;;;;;;8.88;0.90;;;2.70;99.90;;;;;;4999892;28;20511;-77
2023/03/07 03:56:08;;;;;;;10.80;0.85;;;2.70;99.90;;;;;;4989978;28;20051;-78
2023/03/07 03:58:34;;;;;;;11.18;1.02;;;2.70;99.90;;;;;;4997712;28;20529;-78
2023/03/07 04:01:04;;;;;;;7.00;0.77;;;4.30;99.90;;;;;;4980240;28;20137;-79
2023/03/07 04:03:34;;;;;;;8.27;0.47;;;2.40;99.90;;;;;;4989674;28;20513;-77
2023/03/07 04:06:02;;;;;;;5.82;1.10;;;2.70;99.90;;;;;;4989414;28;20513;-78
2023/03/07 04:08:27;;;;;;;8.35;0.63;;;2.50;99.90;;;;;;4980191;28;20944;-77
2023/03/07 04:10:53;;;;;;;17.08;2.38;;;3.90;99.90;;;;;;5001893;28;20133;-77
2023/03/07 04:13:24;;;;;;;5.40;1.25;;;2.10;99.90;;;;;;4978085;28;20047;-77
2023/03/07 04:15:51;;;;;;;6.47;0.63;;;2.70;99.90;;;;;;4961781;28;20092;-78
2023/03/07 04:18:17;;;;;;;11.48;0.90;;;2.50;99.90;;;;;;4968352;28;20053;-78
2023/03/07 04:20:44;;;;;;;6.10;1.10;;;4.30;99.90;;;;;;4977993;28;20536;-78
2023/03/07 04:23:10;;;;;;;6.43;0.77;;;2.70;99.90;;;;;;4975251;28;20053;-79
2023/03/07 04:25:36;;;;;;;7.30;1.15;;;3.60;99.90;;;;;;4983458;28;20114;-79
2023/03/07 04:28:02;;;;;;;9.75;0.80;;;4.20;99.90;;;;;;5001176;28;20088;-79
2023/03/07 04:30:28;;;;;;;11.18;1.00;;;4.20;99.90;;;;;;5001163;28;20046;-78
2023/03/07 04:32:54;;;;;;;5.78;0.82;;;2.50;99.90;;;;;;4980379;28;20054;-78
2023/03/07 04:35:20;;;;;;;10.38;0.95;;;4.30;99.90;;;;;;4996958;28;20716;-79
2023/03/07 04:37:45;;;;;;;10.27;0.65;;;2.50;99.90;;;;;;4997891;28;20046;-79
2023/03/07 04:40:12;;;;;;;10.18;0.88;;;2.60;99.90;;;;;;4983505;28;20054;-79
2023/03/07 04:42:39;;;;;;;9.02;0.85;;;2.60;99.90;;;;;;4965420;28;20260;-81
2023/03/07 04:45:05;;;;;;;10.68;1.05;;;2.50;99.90;;;;;;4997026;28;20054;-80
2023/03/07 04:47:30;;;;;;;9.45;1.05;;;2.80;99.90;;;;;;5000477;28;20192;-80
2023/03/07 04:49:56;;;;;;;11.73;1.42;;;2.70;99.90;;;;;;4984161;28;20140;-79
2023/03/07 04:52:24;;;;;;;6.22;1.10;;;2.40;99.90;;;;;;4976817;28;20054;-80
2023/03/07 04:54:50;;;;;;;11.43;1.25;;;2.70;99.90;;;;;;4976462;28;20111;-79
2023/03/07 04:57:15;;;;;;;15.48;1.02;;;2.70;99.90;;;;;;4951216;28;20414;-79
2023/03/07 04:59:41;;;;;;;13.43;1.50;;;4.50;99.90;;;;;;4993022;28;20046;-77
2023/03/07 05:02:10;;;;;;;4.93;1.40;;;2.70;99.90;;;;;;4954100;28;20474;-78
2023/03/07 05:04:36;;;;;;;6.68;0.70;;;2.80;99.90;;;;;;4981727;28;20070;-78
2023/03/07 05:07:02;;;;;;;12.95;2.05;;;4.80;99.90;;;;;;4964716;28;20042;-78
2023/03/07 05:09:28;;;;;;;7.22;1.50;;;2.70;99.90;;;;;;4978840;28;20054;-80
2023/03/07 05:11:54;;;;;;;8.82;0.77;;;4.70;99.90;;;;;;4963610;28;20050;-78
2023/03/07 05:14:19;;;;;;;9.88;1.30;;;2.30;99.90;;;;;;4977375;28;20137;-80
2023/03/07 05:16:46;;;;;;;6.68;1.20;;;2.70;99.90;;;;;;4981699;28;20058;-79
2023/03/07 05:19:12;;;;;;;12.40;1.50;;;2.70;99.90;;;;;;4948193;28;20046;-79
2023/03/07 05:21:39;;;;;;;5.65;0.75;;;2.90;99.90;;;;;;4981806;28;20045;-79
2023/03/07 05:24:06;;;;;;;7.45;1.15;;;2.70;99.90;;;;;;4981419;28;20050;-78
2023/03/07 05:26:32;;;;;;;9.65;0.93;;;2.80;99.90;;;;;;4965208;28;20053;-80
2023/03/07 05:28:59;;;;;;;9.95;2.20;;;2.80;99.90;;;;;;4980505;28;20628;-79
2023/03/07 05:31:25;;;;;;;15.80;1.73;;;2.80;99.90;;;;;;4963958;28;20049;-78
2023/03/07 05:33:51;;;;;;;9.93;0.93;;;4.50;99.90;;;;;;4965798;28;20058;-80
2023/03/07 05:36:16;;;;;;;11.95;1.05;;;2.70;99.90;;;;;;4991837;28;20054;-78
2023/03/07 05:38:42;;;;;;;11.55;2.92;;;2.80;99.90;;;;;;4979459;28;20610;-79
2023/03/07 05:41:08;;;;;;;10.10;1.38;;;2.80;99.90;;;;;;4961782;28;20153;-78
2023/03/07 05:43:34;;;;;;;16.20;1.40;;;2.70;99.90;;;;;;4992573;28;20602;-79
2023/03/07 05:45:59;;;;;;;9.27;1.00;;;2.80;99.90;;;;;;4963192;28;20043;-79
2023/03/07 05:48:25;;;;;;;10.05;1.35;;;4.70;99.90;;;;;;4979074;28;20113;-79
2023/03/07 05:50:51;;;;;;;15.55;1.42;;;3.60;99.90;;;;;;5000712;28;20054;-79
2023/03/07 05:53:17;;;;;;;4.38;0.80;;;2.70;99.90;;;;;;4980740;28;20049;-79
2023/03/07 05:55:43;;;;;;;8.63;1.52;;;3.00;99.90;;;;;;4997879;28;20101;-78
2023/03/07 05:58:09;;;;;;;5.28;0.85;;;2.60;99.90;;;;;;4994806;28;20046;-79
2023/03/07 06:00:34;;;;;;;3.35;0.52;;;4.30;99.90;;;;;;4997923;28;20080;-79
2023/03/07 06:03:04;;;;;;;9.25;1.23;;;4.10;99.90;;;;;;4976257;28;20050;-80
2023/03/07 06:05:30;;;;;;;2.70;0.50;;;2.60;99.90;;;;;;4984850;28;20427;-78
2023/03/07 06:07:55;;;;;;;6.35;1.10;;;2.50;99.90;;;;;;4995918;28;20045;-78
2023/03/07 06:10:21;;;;;;;6.50;0.60;;;3.80;99.90;;;;;;4979545;28;20052;-78
2023/03/07 06:12:52;;;;;;;4.60;0.70;;;2.50;99.90;;;;;;4998308;28;20481;-79
2023/03/07 06:15:18;;;;;;;6.30;0.60;;;2.50;99.90;;;;;;4965934;28;20541;-78
2023/03/07 06:17:44;;;;;;;8.90;0.80;;;3.40;99.90;;;;;;4964497;28;20049;-80
2023/03/07 06:20:10;;;;;;;8.05;0.68;;;2.50;99.90;;;;;;4993072;28;20037;-78
2023/03/07 06:22:37;;;;;;;10.75;2.20;;;2.60;99.90;;;;;;4966121;28;20056;-80
2023/03/07 06:25:04;;;;;;;7.78;2.80;;;2.60;99.90;;;;;;4979494;28;20081;-78
2023/03/07 06:27:34;;;;;;;7.57;1.08;;;2.60;99.90;;;;;;4979671;28;20054;-79
2023/03/07 06:30:00;;;;;;;5.38;0.93;;;2.50;99.90;;;;;;4971893;28;20074;-79
2023/03/07 06:32:26;;;;;;;7.68;0.63;;;2.50;99.90;;;;;;4963078;28;20305;-78
2023/03/07 06:34:51;;;;;;;5.75;0.80;;;2.50;99.90;;;;;;4984965;28;20109;-79
2023/03/07 06:37:17;;;;;;;8.32;0.70;;;2.60;99.90;;;;;;4966180;28;20114;-78
2023/03/07 06:39:43;;;;;;;11.68;1.00;;;2.60;99.90;;;;;;4979719;28;20160;-78
2023/03/07 06:42:08;;;;;;;9.85;2.38;;;2.60;99.90;;;;;;4995960;28;20089;-78
2023/03/07 06:44:34;;;;;;;6.68;1.10;;;2.60;99.90;;;;;;5001914;28;20039;-79
2023/03/07 06:47:00;;;;;;;3.03;0.40;;;2.60;99.90;;;;;;4984216;28;20499;-79
2023/03/07 06:49:25;;;;;;;3.65;0.40;;;2.50;99.90;;;;;;4296966;28;10000820;-80
2023/03/07 06:51:51;;;;;;;5.53;0.50;;;2.50;99.90;;;;;;4989698;28;20062;-80
2023/03/07 06:54:17;;;;;;;5.38;0.70;;;2.30;99.90;;;;;;4983424;28;20053;-80
2023/03/07 06:56:43;;;;;;;3.78;0.30;;;2.40;99.90;;;;;;4958656;28;20126;-79
2023/03/07 06:59:09;;;;;;;9.32;0.80;;;4.20;99.90;;;;;;4971925;28;20153;-79
2023/03/07 07:01:35;;;;;;;5.32;1.15;;;2.30;99.90;;;;;;4981440;28;20058;-80
2023/03/07 07:04:01;;;;;;;5.95;0.85;;;2.10;99.90;;;;;;4990243;28;20723;-77
2023/03/07 07:06:26;;;;;;;4.78;0.45;;;2.30;99.90;;;;;;4973756;28;20045;-79
2023/03/07 07:08:56;;;;;;;5.03;0.50;;;1.70;99.90;;;;;;4993673;28;20531;-78
2023/03/07 07:11:24;;;;;;;8.45;0.50;;;2.40;99.90;;;;;;4976479;28;20076;-77
2023/03/07 07:13:49;;;;;;;13.75;1.00;;;2.20;99.90;;;;;;4977619;28;20054;-77
2023/03/07 07:16:16;;;;;;;3.67;0.25;;;1.90;99.90;;;;;;4974555;28;20413;-77
2023/03/07 07:18:43;;;;;;;5.13;0.85;;;4.00;99.90;;;;;;4980333;28;20475;-78
2023/03/07 07:21:08;;;;;;;5.95;0.68;;;3.90;99.90;;;;;;4963627;28;20540;-78
2023/03/07 07:23:34;;;;;;;3.80;0.63;;;2.20;99.90;;;;;;4975481;28;20070;-78
2023/03/07 07:26:00;;;;;;;6.28;1.02;;;4.50;99.90;;;;;;4983435;28;20489;-78
2023/03/07 07:28:26;;;;;;;4.93;0.52;;;2.00;99.90;;;;;;4981075;28;20054;-80
2023/03/07 07:30:52;;;;;;;2.53;0.30;;;2.60;99.90;;;;;;4983146;28;20153;-78
2023/03/07 07:33:18;;;;;;;5.53;0.50;;;2.30;99.90;;;;;;4997926;28;20466;-79
2023/03/07 07:35:44;;;;;;;4.47;0.88;;;2.20;99.90;;;;;;4977268;28;20092;-79
2023/03/07 07:38:10;;;;;;;6.32;1.27;;;2.20;99.90;;;;;;4970911;28;20104;-78
2023/03/07 07:40:36;;;;;;;5.35;0.68;;;1.90;99.90;;;;;;4976399;28;20365;-77
2023/03/07 07:43:01;;;;;;;7.85;0.50;;;2.20;99.90;;;;;;4976742;28;20045;-81
2023/03/07 07:45:27;;;;;;;6.82;0.70;;;2.30;99.90;;;;;;4971784;28;20446;-81
2023/03/07 07:47:52;;;;;;;6.53;0.73;;;2.30;99.90;;;;;;4976804;28;20051;-81
2023/03/07 07:50:20;;;;;;;5.10;0.43;;;2.40;99.90;;;;;;4999498;28;20046;-81
2023/03/07 07:52:46;;;;;;;7.88;0.60;;;2.40;99.90;;;;;;4981784;28;20125;-81
2023/03/07 07:55:13;;;;;;;5.78;1.17;;;3.90;99.90;;;;;;4968331;28;20069;-81
2023/03/07 07:57:39;;;;;;;5.40;0.50;;;2.40;99.90;;;;;;4985373;28;20048;-81
2023/03/07 08:00:06;;;;;;;7.82;1.02;;;2.40;99.90;;;;;;4965486;28;20085;-81
2023/03/07 08:02:36;;;;;;;7.57;1.00;;;2.40;99.90;;;;;;4981506;28;20471;-81
2023/03/07 08:05:02;;;;;;;7.30;1.25;;;2.40;99.90;;;;;;4968479;28;20042;-81
2023/03/07 08:07:31;;;;;;;1.65;0.50;;;4.40;99.90;;;;;;5000611;28;20081;-81
2023/03/07 08:09:57;;;;;;;6.72;0.50;;;2.40;99.90;;;;;;4983220;28;20142;-82
2023/03/07 08:12:22;;;;;;;4.60;0.75;;;2.50;99.90;;;;;;4971824;28;20129;-81
2023/03/07 08:14:48;;;;;;;7.47;0.60;;;2.50;99.90;;;;;;5000536;28;20112;-81
2023/03/07 08:17:13;;;;;;;3.92;0.60;;;2.50;99.90;;;;;;5001867;28;20124;-82
2023/03/07 08:19:39;;;;;;;6.25;0.40;;;2.50;99.90;;;;;;5001488;28;20042;-81
2023/03/07 08:22:04;;;;;;;5.10;1.17;;;2.50;99.90;;;;;;4991667;28;20050;-81
2023/03/07 08:24:33;;;;;;;8.70;0.50;;;2.60;99.90;;;;;;4988929;28;20083;-81
2023/03/07 08:26:59;;;;;;;5.45;0.38;;;4.30;99.90;;;;;;4995547;28;20050;-82
2023/03/07 08:29:26;;;;;;;4.43;0.95;;;2.50;99.90;;;;;;4999154;28;20076;-81
2023/03/07 08:31:53;;;;;;;7.53;0.77;;;2.60;99.90;;;;;;4965138;28;20100;-81
2023/03/07 08:34:19;;;;;;;4.32;0.93;;;3.60;99.90;;;;;;4984728;28;20050;-81
2023/03/07 08:36:45;;;;;;;5.15;2.08;;;2.70;99.90;;;;;;4984925;28;20498;-81
2023/03/07 08:39:11;;;;;;;4.97;0.73;;;2.60;99.90;;;;;;4988544;28;20114;-81
2023/03/07 08:41:37;;;;;;;3.97;0.35;;;2.60;99.90;;;;;;4997967;28;20054;-81
2023/03/07 08:44:02;;;;;;;9.70;0.73;;;4.40;99.90;;;;;;5001128;28;20050;-81
2023/03/07 08:46:28;;;;;;;5.05;0.38;;;2.50;99.90;;;;;;4999023;28;20046;-81
2023/03/07 08:48:54;;;;;;;5.53;0.50;;;2.30;99.90;;;;;;4999089;28;20086;-81
2023/03/07 08:51:19;;;;;;;4.78;0.40;;;2.10;99.90;;;;;;4983656;28;20081;-82
2023/03/07 08:53:45;;;;;;;5.43;0.40;;;2.00;99.90;;;;;;4984473;28;20060;-82
2023/03/07 08:56:14;;;;;;;2.22;0.50;;;1.90;99.90;;;;;;4997469;28;20546;-81
2023/03/07 08:58:40;;;;;;;4.13;0.65;;;2.20;99.90;;;;;;4980322;28;20061;-82
2023/03/07 09:01:07;;;;;;;8.25;0.60;;;1.70;99.90;;;;;;5000675;28;20498;-82
2023/03/07 09:03:33;;;;;;;5.53;0.50;;;1.80;99.90;;;;;;4984559;28;20049;-81
2023/03/07 09:05:59;;;;;;;7.82;1.20;;;1.80;99.90;;;;;;4958871;28;20054;-81
2023/03/07 09:08:25;;;;;;;1.80;0.30;;;1.70;99.90;;;;;;4982205;28;20101;-81
2023/03/07 09:10:52;;;;;;;5.90;0.50;;;1.70;99.90;;;;;;4981148;28;20053;-81
2023/03/07 09:13:17;;;;;;;9.52;0.57;;;1.40;99.90;;;;;;4979907;28;20055;-82
2023/03/07 09:15:43;;;;;;;1.80;0.40;;;2.50;99.90;;;;;;4980924;28;20349;-81
2023/03/07 09:18:10;;;;;;;3.10;0.50;;;1.60;99.90;;;;;;4982870;28;20112;-82
2023/03/07 09:20:39;;;;;;;3.88;0.52;;;1.60;99.90;;;;;;4977181;28;20113;-81
2023/03/07 09:23:05;;;;;;;4.07;0.60;;;1.60;99.90;;;;;;4990561;28;20146;-81
2023/03/07 09:25:31;;;;;;;3.58;0.90;;;1.40;99.90;;;;;;4968255;28;20042;-82
2023/03/07 09:27:56;;;;;;;7.47;0.90;;;1.60;99.90;;;;;;4965953;28;20567;-80
2023/03/07 09:30:24;;;;;;;10.40;0.80;;;3.40;99.90;;;;;;4979674;28;20054;-82
2023/03/07 09:32:50;;;;;;;11.18;1.23;;;1.50;99.90;;;;;;4997046;28;20142;-81
2023/03/07 09:35:16;;;;;;;1.98;0.38;;;1.60;99.90;;;;;;4974711;28;20068;-82
2023/03/07 09:37:42;;;;;;;8.68;1.65;;;1.60;99.90;;;;;;4983874;28;20041;-81
2023/03/07 09:40:16;;;;;;;6.22;0.75;;;1.40;99.90;;;;;;4963163;28;20123;-80
2023/03/07 09:43:25;;;;;;;9.07;0.90;;;1.70;99.90;;;;;;4979513;28;20042;-83
2023/03/07 09:46:31;;;;;;;6.78;0.35;;;1.70;99.90;;;;;;4960863;28;20054;-82
2023/03/07 09:49:16;;;;;;;7.15;0.85;;;1.70;99.90;;;;;;4960935;28;20505;-80
2023/03/07 09:51:44;;;;;;;9.95;1.02;;;1.70;99.90;;;;;;4983680;28;20058;-82
2023/03/07 09:54:38;;;;;;;7.25;0.93;;;1.80;99.90;;;;;;4980732;28;20421;-80
2023/03/07 09:57:10;;;;;;;5.63;1.50;;;1.80;99.90;;;;;;4980662;28;20181;-80
2023/03/07 10:00:15;;;;;;;7.65;0.80;;;1.80;99.90;;;;;;5000076;28;20296;-81
2023/03/07 10:02:55;;;;;;;7.05;0.95;;;1.90;99.90;;;;;;4974726;28;20517;-80
2023/03/07 10:05:30;;;;;;;7.97;0.80;;;2.00;99.90;;;;;;4980271;28;20521;-80
2023/03/07 10:07:56;;;;;;;6.32;0.98;;;2.10;99.90;;;;;;4984832;28;20050;-80
2023/03/07 10:10:30;;;;;;;8.32;1.40;;;2.10;99.90;;;;;;4982439;28;20385;-81
2023/03/07 10:13:07;;;;;;;10.10;1.17;;;2.30;99.90;;;;;;4982588;28;20699;-80
2023/03/07 10:15:47;;;;;;;6.32;1.58;;;2.30;99.90;;;;;;4997232;28;20561;-80
2023/03/07 10:18:15;;;;;;;10.98;1.13;;;2.40;99.90;;;;;;4980320;28;20421;-80
2023/03/07 10:20:54;;;;;;;5.63;1.00;;;2.40;99.90;;;;;;4960956;28;20046;-81
2023/03/07 10:23:29;;;;;;;11.52;1.75;;;2.40;99.90;;;;;;4982384;28;20128;-81
2023/03/07 10:26:13;;;;;;;6.53;0.68;;;2.40;99.90;;;;;;5000428;28;20362;-81
2023/03/07 10:28:42;;;;;;;11.02;2.15;;;2.60;99.90;;;;;;4990321;28;20042;-81
2023/03/07 10:31:38;;;;;;;13.20;1.52;;;2.60;99.90;;;;;;4964181;28;20076;-80
2023/03/07 10:34:26;;;;;;;10.13;1.15;;;2.60;99.90;;;;;;4979807;28;20516;-80
2023/03/07 10:36:59;;;;;;;9.15;1.60;;;2.70;99.90;;;;;;4979096;28;20050;-81
2023/03/07 10:39:45;;;;;;;5.90;0.93;;;2.80;99.90;;;;;;4955894;28;20127;-81
2023/03/07 10:42:13;;;;;;;8.10;1.13;;;2.80;99.90;;;;;;4964557;28;20058;-80
2023/03/07 10:44:39;;;;;;;7.47;1.48;;;2.80;99.90;;;;;;4998138;28;20359;-81
2023/03/07 10:47:04;;;;;;;7.30;1.85;;;2.90;99.90;;;;;;4979636;28;20096;-80
2023/03/07 10:49:45;;;;;;;7.28;1.27;;;3.10;99.90;;;;;;4982964;28;20050;-80
2023/03/07 10:52:37;;;;;;;12.57;1.50;;;3.10;99.90;;;;;;4980385;28;20108;-81
2023/03/07 10:55:28;;;;;;;7.43;1.30;;;3.20;99.90;;;;;;4996819;28;20359;-81
2023/03/07 10:57:53;;;;;;;8.07;1.17;;;3.30;99.90;;;;;;4998150;28;20092;-80
2023/03/07 11:00:19;;;;;;;13.55;1.23;;;3.40;99.90;;;;;;4979017;28;20503;-81
2023/03/07 11:02:45;;;;;;;8.00;1.00;;;3.40;99.90;;;;;;4996506;28;20054;-82
2023/03/07 11:05:30;;;;;;;15.75;1.73;;;3.50;99.90;;;;;;4963940;28;20136;-81
2023/03/07 11:07:57;;;;;;;7.32;1.05;;;3.50;99.90;;;;;;4975003;28;20197;-81
2023/03/07 11:10:43;;;;;;;7.97;1.17;;;5.10;99.90;;;;;;4979198;28;20058;-81
2023/03/07 11:13:18;;;;;;;7.78;0.73;;;5.30;99.90;;;;;;4979350;28;20070;-82
2023/03/07 11:15:46;;;;;;;;;;;3.70;99.90;;;;;;4961015;28;20104;-81
2023/03/07 11:18:42;;;;;;;8.25;1.17;;;5.30;99.90;;;;;;5000078;28;19921;-82
2023/03/07 11:21:28;;;;;;;10.27;1.05;;;2.90;99.90;;;;;;4996148;28;20077;-81
2023/03/07 11:24:15;;;;;;;5.45;1.08;;;5.00;99.90;;;;;;4959974;28;20054;-81
2023/03/07 11:26:41;;;;;;;6.28;0.90;;;3.80;99.90;;;;;;4972623;28;20050;-81
2023/03/07 11:29:12;;;;;;;8.93;1.23;;;4.90;99.90;;;;;;4996543;28;20050;-81
2023/03/07 11:32:03;;;;;;;10.20;1.58;;;3.80;99.90;;;;;;4982724;28;20124;-82
2023/03/07 11:35:10;;;;;;;5.78;1.20;;;3.90;99.90;;;;;;4962738;28;20129;-81
2023/03/07 11:37:56;;;;;;;3.95;0.65;;;3.90;99.90;;;;;;4928934;29;20052;-82
2023/03/07 11:40:32;;;;;;;7.90;1.02;;;3.90;99.90;;;;;;4976771;28;20050;-82
2023/03/07 11:43:13;;;;;;;11.73;1.10;;;4.00;99.90;;;;;;4982675;28;20136;-81
2023/03/07 11:45:44;;;;;;;12.23;1.48;;;4.10;99.90;;;;;;4993375;28;20141;-81
2023/03/07 11:48:30;;;;;;;8.27;0.70;;;4.20;99.90;;;;;;4986387;28;20050;-81
2023/03/07 11:50:56;;;;;;;5.88;0.52;;;4.20;99.90;;;;;;5003093;28;20536;-81
2023/03/07 11:53:31;;;;;;;5.10;0.95;;;4.10;99.90;;;;;;5000974;28;20045;-81
2023/03/07 11:56:15;;;;;;;4.65;0.43;;;4.00;99.90;;;;;;4981901;28;20116;-81
2023/03/07 11:58:59;;;;;;;5.88;0.70;;;3.90;99.90;;;;;;4972596;28;20530;-81
2023/03/07 12:01:41;;;;;;;6.38;0.60;;;3.80;99.90;;;;;;4983991;28;20116;-83
2023/03/07 12:04:32;;;;;;;7.75;0.68;;;3.70;99.90;;;;;;4982915;28;20492;-81
2023/03/07 12:07:13;;;;;;;8.90;1.73;;;3.60;99.90;;;;;;4996560;28;20057;-80
2023/03/07 12:09:51;;;;;;;7.72;1.42;;;3.70;99.90;;;;;;4975156;28;20674;-80
2023/03/07 12:12:22;;;;;;;6.10;0.75;;;3.70;99.90;;;;;;4998336;28;20143;-81
2023/03/07 12:14:57;;;;;;;3.55;0.60;;;3.80;99.90;;;;;;4998497;28;20140;-80
2023/03/07 12:17:53;;;;;;;10.38;1.35;;;3.80;99.90;;;;;;4999305;28;20320;-80
2023/03/07 12:20:38;;;;;;;7.63;0.77;;;3.90;99.90;;;;;;4999385;28;20054;-80
2023/03/07 12:23:15;;;;;;;12.07;1.92;;;3.90;99.90;;;;;;4972445;28;20057;-78
2023/03/07 12:25:44;;;;;;;5.43;0.60;;;4.00;99.90;;;;;;4994060;28;20091;-79
2023/03/07 12:28:14;;;;;;;7.47;0.88;;;5.70;99.90;;;;;;4998355;28;20050;-78
2023/03/07 12:31:18;;;;;;;6.18;1.00;;;4.00;99.90;;;;;;4972657;28;20056;-78
2023/03/07 12:34:09;;;;;;;4.90;0.75;;;4.10;99.90;;;;;;4980073;28;20073;-78
2023/03/07 12:36:47;;;;;;;10.50;1.33;;;4.30;99.90;;;;;;4982079;28;20825;-79
2023/03/07 12:39:46;;;;;;;7.60;1.10;;;4.40;99.90;;;;;;4962147;28;20086;-79
2023/03/07 12:42:27;;;;;;;7.72;0.60;;;4.50;99.90;;;;;;4956549;28;20050;-78
2023/03/07 12:45:15;;;;;;;5.68;0.88;;;4.60;99.90;;;;;;4995009;28;20046;-78
2023/03/07 12:47:52;;;;;;;3.65;0.43;;;4.50;99.90;;;;;;4975678;28;20082;-78
2023/03/07 12:51:04;;;;;;;9.13;0.88;;;4.50;99.90;;;;;;4957215;28;20073;-78
2023/03/07 12:53:47;;;;;;;5.32;0.55;;;4.50;99.90;;;;;;4998789;28;20043;-78
2023/03/07 12:56:37;;;;;;;3.85;0.40;;;4.50;99.90;;;;;;4978567;28;20454;-78
2023/03/07 12:59:14;;;;;;;6.93;0.60;;;4.60;99.90;;;;;;4993652;28;20050;-78
2023/03/07 13:01:46;;;;;;;4.85;0.60;;;6.00;99.90;;;;;;4990217;28;20058;-78
2023/03/07 13:04:37;;;;;;;10.13;1.00;;;5.60;99.90;;;;;;4986910;28;20438;-78
2023/03/07 13:07:14;;;;;;;7.95;0.68;;;4.80;99.90;;;;;;4966863;28;20113;-79
2023/03/07 13:09:43;;;;;;;7.45;0.40;;;4.70;99.90;;;;;;4990985;28;20050;-79
2023/03/07 13:12:15;;;;;;;4.40;0.40;;;4.70;99.90;;;;;;4974166;28;20051;-78